createdAt,value
2023-05-17T00:02:16.031Z,6.07
2023-05-17T00:04:45.684Z,6.57
2023-05-17T00:07:14.227Z,6.43
2023-05-17T00:09:42.673Z,7.00
2023-05-17T00:12:11.466Z,6.10
2023-05-17T00:14:39.852Z,7.70
2023-05-17T00:17:07.848Z,7.70
2023-05-17T00:19:35.966Z,7.40
2023-05-17T00:22:04.079Z,7.83
2023-05-17T00:24:32.059Z,7.70
2023-05-17T00:27:00.544Z,6.27
2023-05-17T00:29:29.228Z,6.70
2023-05-17T00:31:57.082Z,7.40
2023-05-17T00:34:25.776Z,6.03
2023-05-17T00:36:54.358Z,6.17
2023-05-17T00:39:22.740Z,6.70
2023-05-17T00:41:51.757Z,5.83
2023-05-17T00:44:19.908Z,5.97
2023-05-17T00:46:48.479Z,6.40
2023-05-17T00:49:16.974Z,6.10
2023-05-17T00:51:46.073Z,6.10
2023-05-17T00:54:15.166Z,6.20
2023-05-17T00:56:43.857Z,5.97
2023-05-17T00:59:13.363Z,6.37
2023-05-17T01:01:43.271Z,6.57
2023-05-17T01:04:12.531Z,6.17
2023-05-17T01:06:41.558Z,5.80
2023-05-17T01:09:10.020Z,6.07
2023-05-17T01:11:40.162Z,17.23
2023-05-17T01:14:18.960Z,15.30
2023-05-17T01:16:48.593Z,11.90
2023-05-17T01:19:34.550Z,9.50
2023-05-17T01:22:13.603Z,9.17
2023-05-17T01:24:59.988Z,8.40
2023-05-17T01:27:29.727Z,9.03
2023-05-17T01:29:57.877Z,8.13
2023-05-17T01:32:26.803Z,8.87
2023-05-17T01:34:55.577Z,8.30
2023-05-17T01:37:24.060Z,7.97
2023-05-17T01:39:53.088Z,8.33
2023-05-17T01:42:26.029Z,7.10
2023-05-17T01:45:08.560Z,6.87
2023-05-17T01:47:53.884Z,6.80
2023-05-17T01:50:24.247Z,5.90
2023-05-17T01:52:54.488Z,6.13
2023-05-17T01:55:27.275Z,7.83
2023-05-17T01:57:57.456Z,6.17
2023-05-17T02:00:26.567Z,6.77
2023-05-17T02:02:55.177Z,5.83
2023-05-17T02:05:24.053Z,5.57
2023-05-17T02:07:52.395Z,6.67
2023-05-17T02:10:21.216Z,7.93
2023-05-17T02:12:49.695Z,6.10
2023-05-17T02:15:17.668Z,6.17
2023-05-17T02:17:46.178Z,6.23
2023-05-17T02:20:14.727Z,6.10
2023-05-17T02:22:43.109Z,6.60
2023-05-17T02:25:11.182Z,7.30
2023-05-17T02:27:39.975Z,7.40
2023-05-17T02:30:09.172Z,7.77
2023-05-17T02:32:37.748Z,9.10
2023-05-17T02:35:06.834Z,9.27
2023-05-17T02:37:35.131Z,9.10
2023-05-17T02:40:04.257Z,7.90
2023-05-17T02:42:32.402Z,7.37
2023-05-17T02:45:00.982Z,6.87
2023-05-17T02:47:29.647Z,8.00
2023-05-17T02:49:58.363Z,8.30
2023-05-17T02:52:26.728Z,8.73
2023-05-17T02:54:54.699Z,8.13
2023-05-17T02:57:22.656Z,8.70
2023-05-17T02:59:51.252Z,8.30
2023-05-17T03:02:19.529Z,8.63
2023-05-17T03:04:48.033Z,8.50
2023-05-17T03:07:16.593Z,8.60
2023-05-17T03:09:45.286Z,8.37
2023-05-17T03:12:13.763Z,9.27
2023-05-17T03:14:41.631Z,8.50
2023-05-17T03:17:10.208Z,8.40
2023-05-17T03:19:39.086Z,8.57
2023-05-17T03:22:07.361Z,9.70
2023-05-17T03:24:36.060Z,10.00
2023-05-17T03:27:07.535Z,11.50
2023-05-17T03:29:36.315Z,11.47
2023-05-17T03:32:04.998Z,12.27
2023-05-17T03:34:33.677Z,12.33
2023-05-17T03:37:02.671Z,13.43
2023-05-17T03:39:32.285Z,13.40
2023-05-17T03:42:01.374Z,12.53
2023-05-17T03:44:30.073Z,12.20
2023-05-17T03:46:58.059Z,13.90
2023-05-17T03:49:26.227Z,16.13
2023-05-17T03:51:54.134Z,16.17
2023-05-17T03:54:22.149Z,15.23
2023-05-17T03:56:50.722Z,16.40
2023-05-17T03:59:19.724Z,16.17
2023-05-17T04:01:47.700Z,16.60
2023-05-17T04:04:15.703Z,15.93
2023-05-17T04:06:44.662Z,16.97
2023-05-17T04:09:14.982Z,16.53
2023-05-17T04:11:43.925Z,17.47
2023-05-17T04:14:12.201Z,15.50
2023-05-17T04:16:40.838Z,16.57
2023-05-17T04:19:09.584Z,14.40
2023-05-17T04:21:38.181Z,14.47
2023-05-17T04:24:06.398Z,13.33
2023-05-17T04:26:35.144Z,15.60
2023-05-17T04:29:03.846Z,13.93
2023-05-17T04:31:32.617Z,13.07
2023-05-17T04:34:01.181Z,12.50
2023-05-17T04:36:30.459Z,13.50
2023-05-17T04:38:58.471Z,15.37
2023-05-17T04:41:26.581Z,13.57
2023-05-17T04:43:55.050Z,15.07
2023-05-17T04:46:23.742Z,14.63
2023-05-17T04:48:52.340Z,14.10
2023-05-17T04:51:21.298Z,13.80
2023-05-17T04:53:49.797Z,13.30
2023-05-17T04:56:18.311Z,13.70
2023-05-17T04:58:46.855Z,12.87
2023-05-17T05:01:15.755Z,13.53
2023-05-17T05:03:44.465Z,14.23
2023-05-17T05:06:13.229Z,13.47
2023-05-17T05:08:42.001Z,14.03
2023-05-17T05:11:10.702Z,14.23
2023-05-17T05:13:39.261Z,12.93
2023-05-17T05:16:07.562Z,12.33
2023-05-17T05:18:36.423Z,11.43
2023-05-17T05:21:04.951Z,12.40
2023-05-17T05:23:33.422Z,11.43
2023-05-17T05:26:01.584Z,11.50
2023-05-17T05:28:30.157Z,7.80
2023-05-17T05:31:01.724Z,10.20
2023-05-17T05:33:29.639Z,9.03
2023-05-17T05:35:58.372Z,9.50
2023-05-17T05:38:27.075Z,10.00
2023-05-17T05:40:56.062Z,9.30
2023-05-17T05:43:24.373Z,8.93
2023-05-17T05:45:53.031Z,8.87
2023-05-17T05:48:20.976Z,8.97
2023-05-17T05:50:49.694Z,9.80
2023-05-17T05:53:19.280Z,8.73
2023-05-17T05:55:47.809Z,8.90
2023-05-17T05:58:19.858Z,9.37
2023-05-17T06:00:48.377Z,8.47
2023-05-17T06:03:17.319Z,9.37
2023-05-17T06:05:45.871Z,9.23
2023-05-17T06:08:14.584Z,9.33
2023-05-17T06:10:43.205Z,9.87
2023-05-17T06:13:12.062Z,9.27
2023-05-17T06:15:41.459Z,9.73
2023-05-17T06:18:10.324Z,11.40
2023-05-17T06:23:06.839Z,8.48
2023-05-17T06:25:35.395Z,7.43
2023-05-17T06:28:04.785Z,10.90
2023-05-17T06:30:33.091Z,8.57
2023-05-17T06:33:02.059Z,9.20
2023-05-17T06:35:37.515Z,10.30
2023-05-17T06:38:00.974Z,8.50
2023-05-17T06:40:29.435Z,9.30
2023-05-17T06:42:58.036Z,10.90
2023-05-17T06:45:27.954Z,10.33
2023-05-17T06:47:56.553Z,10.03
2023-05-17T06:50:26.357Z,10.80
2023-05-17T06:52:55.655Z,12.13
2023-05-17T06:57:51.492Z,11.35
2023-05-17T07:00:21.814Z,12.00
2023-05-17T07:02:50.749Z,10.53
2023-05-17T07:05:19.591Z,10.63
2023-05-17T07:07:48.167Z,13.40
2023-05-17T07:10:17.347Z,11.37
2023-05-17T07:12:46.248Z,10.53
2023-05-17T07:15:14.850Z,12.23
2023-05-17T07:17:47.214Z,11.00
2023-05-17T07:20:16.007Z,11.73
2023-05-17T07:22:44.352Z,11.57
2023-05-17T07:25:13.212Z,12.33
2023-05-17T07:27:41.651Z,12.33
2023-05-17T07:30:10.858Z,12.40
2023-05-17T07:37:34.565Z,12.15
2023-05-17T07:40:05.402Z,13.07
2023-05-17T07:42:36.192Z,11.97
2023-05-17T07:45:04.941Z,12.60
2023-05-17T07:47:33.586Z,12.63
2023-05-17T07:50:04.021Z,11.23
2023-05-17T07:52:32.674Z,11.13
2023-05-17T07:55:01.199Z,12.10
2023-05-17T07:57:29.891Z,12.23
2023-05-17T07:59:58.490Z,13.80
2023-05-17T08:02:27.120Z,11.70
2023-05-17T08:04:55.559Z,12.73
2023-05-17T08:07:24.256Z,12.60
2023-05-17T08:09:52.793Z,12.73
2023-05-17T08:12:22.731Z,13.80
2023-05-17T08:14:50.936Z,13.93
2023-05-17T08:17:19.373Z,13.60
2023-05-17T08:19:48.025Z,13.67
2023-05-17T08:22:17.473Z,12.63
2023-05-17T08:27:13.615Z,11.33
2023-05-17T08:29:42.070Z,12.97
2023-05-17T08:32:10.977Z,11.43
2023-05-17T08:34:39.352Z,11.93
2023-05-17T08:37:08.691Z,10.83
2023-05-17T08:39:37.180Z,10.90
2023-05-17T08:42:07.100Z,11.57
2023-05-17T08:44:36.968Z,11.83
2023-05-17T08:47:06.172Z,12.30
2023-05-17T08:52:02.829Z,11.08
2023-05-17T08:54:31.810Z,10.47
2023-05-17T08:57:02.638Z,11.27
2023-05-17T08:59:32.985Z,11.43
2023-05-17T09:02:01.755Z,10.87
2023-05-17T09:04:31.453Z,11.70
2023-05-17T09:07:00.253Z,12.17
2023-05-17T09:09:28.419Z,10.53
2023-05-17T09:11:57.182Z,11.67
2023-05-17T09:14:25.092Z,10.43
2023-05-17T09:16:55.231Z,9.87
2023-05-17T09:19:23.872Z,9.33
2023-05-17T09:21:52.688Z,10.07
2023-05-17T09:24:23.410Z,8.87
2023-05-17T09:26:52.822Z,9.40
2023-05-17T09:29:20.718Z,10.10
2023-05-17T09:31:49.380Z,10.63
2023-05-17T09:34:19.305Z,9.20
2023-05-17T09:36:48.017Z,8.57
2023-05-17T09:39:16.572Z,10.87
2023-05-17T09:41:47.897Z,9.30
2023-05-17T09:44:17.029Z,9.00
2023-05-17T09:46:48.776Z,7.73
2023-05-17T09:49:17.677Z,7.93
2023-05-17T09:51:46.605Z,8.77
2023-05-17T09:54:15.236Z,9.27
2023-05-17T09:56:43.722Z,9.50
2023-05-17T09:59:13.499Z,8.60
2023-05-17T10:01:42.832Z,8.77
2023-05-17T10:04:11.978Z,5.93
2023-05-17T10:06:47.510Z,7.10
2023-05-17T10:09:12.781Z,7.77
2023-05-17T10:11:41.887Z,8.20
2023-05-17T10:16:39.151Z,7.20
2023-05-17T10:19:08.166Z,6.97
2023-05-17T10:26:31.452Z,7.33
2023-05-17T10:29:02.130Z,7.63
2023-05-17T10:31:31.246Z,7.67
2023-05-17T10:33:59.960Z,9.30
2023-05-17T10:36:28.547Z,7.80
2023-05-17T10:38:56.992Z,7.40
2023-05-17T10:41:27.029Z,8.13
2023-05-17T10:43:56.050Z,8.77
2023-05-17T10:46:25.043Z,8.17
2023-05-17T10:48:54.361Z,8.03
2023-05-17T10:51:26.164Z,7.40
2023-05-17T10:54:14.187Z,8.17
2023-05-17T10:56:44.330Z,7.90
2023-05-17T10:59:17.176Z,7.43
2023-05-17T11:01:55.129Z,7.97
2023-05-17T11:04:26.461Z,7.73
2023-05-17T11:06:57.801Z,7.97
2023-05-17T11:09:26.216Z,9.57
2023-05-17T11:12:03.302Z,8.07
2023-05-17T11:14:48.692Z,8.63
2023-05-17T11:17:19.814Z,8.90
2023-05-17T11:19:52.973Z,9.03
2023-05-17T11:22:23.455Z,8.80
2023-05-17T11:24:54.473Z,11.40
2023-05-17T11:27:24.761Z,10.20
2023-05-17T11:29:52.766Z,9.67
2023-05-17T11:32:22.821Z,9.57
2023-05-17T11:34:54.046Z,10.97
2023-05-17T11:37:30.412Z,10.20
2023-05-17T11:40:07.747Z,10.20
2023-05-17T11:42:39.037Z,8.93
2023-05-17T11:45:08.184Z,7.03
2023-05-17T11:47:38.308Z,8.30
2023-05-17T11:50:08.117Z,7.93
2023-05-17T11:52:36.452Z,8.00
2023-05-17T11:55:05.642Z,8.60
2023-05-17T12:00:06.911Z,7.20
2023-05-17T12:02:35.417Z,8.60
2023-05-17T12:05:04.752Z,6.70
2023-05-17T12:07:35.580Z,8.10
2023-05-17T12:10:05.669Z,7.77
2023-05-17T12:12:34.535Z,8.40
2023-05-17T12:15:03.491Z,8.63
2023-05-17T12:17:34.098Z,7.97
2023-05-17T12:20:09.621Z,6.87
2023-05-17T12:22:54.261Z,7.80
2023-05-17T12:25:25.887Z,7.53
2023-05-17T12:27:55.222Z,7.43
2023-05-17T12:30:23.865Z,9.27
2023-05-17T12:32:52.719Z,7.60
2023-05-17T12:35:21.584Z,9.80
2023-05-17T12:37:50.271Z,8.43
2023-05-17T12:40:19.057Z,8.87
2023-05-17T12:42:47.846Z,8.83
2023-05-17T12:45:16.035Z,6.83
2023-05-17T12:47:44.972Z,9.23
2023-05-17T12:50:13.704Z,8.60
2023-05-17T12:52:42.699Z,7.73
2023-05-17T12:55:13.024Z,8.60
2023-05-17T12:57:43.252Z,8.30
2023-05-17T13:00:11.785Z,8.77
2023-05-17T13:02:42.407Z,8.37
2023-05-17T13:05:25.279Z,8.53
2023-05-17T13:07:54.067Z,8.17
2023-05-17T13:10:23.632Z,7.30
2023-05-17T13:12:59.729Z,8.17
2023-05-17T13:15:32.097Z,7.70
2023-05-17T13:18:01.099Z,8.50
2023-05-17T13:20:30.646Z,6.37
2023-05-17T13:22:59.605Z,6.47
2023-05-17T13:25:27.775Z,7.73
2023-05-17T13:27:56.577Z,8.40
2023-05-17T13:30:25.356Z,6.67
2023-05-17T13:32:55.432Z,9.20
2023-05-17T13:35:24.149Z,7.50
2023-05-17T13:37:52.949Z,7.67
2023-05-17T13:40:21.735Z,7.57
2023-05-17T13:42:50.110Z,7.20
2023-05-17T13:45:18.797Z,8.30
2023-05-17T13:47:47.444Z,7.77
2023-05-17T13:50:17.450Z,5.80
2023-05-17T13:52:46.198Z,6.00
2023-05-17T13:55:14.784Z,6.87
2023-05-17T13:57:44.489Z,6.43
2023-05-17T14:00:13.233Z,6.23
2023-05-17T14:02:41.786Z,6.50
2023-05-17T14:05:10.550Z,5.23
2023-05-17T14:07:43.341Z,6.03
2023-05-17T14:10:15.621Z,5.70
2023-05-17T14:12:43.988Z,4.90
2023-05-17T14:15:12.065Z,6.10
2023-05-17T14:17:40.120Z,5.20
2023-05-17T14:20:09.327Z,5.83
2023-05-17T14:22:37.598Z,5.80
2023-05-17T14:25:07.374Z,5.63
2023-05-17T14:27:36.397Z,5.70
2023-05-17T14:30:05.290Z,6.20
2023-05-17T14:32:35.500Z,5.13
2023-05-17T14:35:03.806Z,5.77
2023-05-17T14:37:32.477Z,6.60
2023-05-17T14:40:06.383Z,5.20
2023-05-17T14:42:32.106Z,5.10
2023-05-17T14:45:00.819Z,6.40
2023-05-17T14:47:29.614Z,5.57
2023-05-17T14:49:58.290Z,4.77
2023-05-17T14:52:26.847Z,4.83
2023-05-17T14:54:55.634Z,5.03
2023-05-17T14:57:24.930Z,4.90
2023-05-17T15:02:21.587Z,6.08
2023-05-17T15:04:50.622Z,5.97
2023-05-17T15:07:18.754Z,6.03
2023-05-17T15:09:46.811Z,6.33
2023-05-17T15:12:16.535Z,7.07
2023-05-17T15:14:46.074Z,7.53
2023-05-17T15:17:14.518Z,6.20
2023-05-17T15:19:43.367Z,6.07
2023-05-17T15:22:12.526Z,4.73
2023-05-17T15:24:41.508Z,5.60
2023-05-17T15:27:12.141Z,6.33
2023-05-17T15:29:42.160Z,6.40
2023-05-17T15:32:10.941Z,6.40
2023-05-17T15:34:39.639Z,5.77
2023-05-17T15:37:08.301Z,6.97
2023-05-17T15:39:37.424Z,6.83
2023-05-17T15:42:06.724Z,7.17
2023-05-17T15:44:35.506Z,8.67
2023-05-17T15:47:04.922Z,7.70
2023-05-17T15:49:33.664Z,6.37
2023-05-17T15:52:02.602Z,6.13
2023-05-17T15:54:31.692Z,6.70
2023-05-17T15:57:00.355Z,5.30
2023-05-17T15:59:29.241Z,5.83
2023-05-17T16:01:57.431Z,6.07
2023-05-17T16:04:26.122Z,6.37
2023-05-17T16:06:54.188Z,9.67
2023-05-17T16:09:22.999Z,7.93
2023-05-17T16:11:51.261Z,8.00
2023-05-17T16:14:20.046Z,8.33
2023-05-17T16:16:48.839Z,9.20
2023-05-17T16:19:17.401Z,8.23
2023-05-17T16:21:49.810Z,8.73
2023-05-17T16:24:18.451Z,6.87
2023-05-17T16:26:47.158Z,7.30
2023-05-17T16:29:17.694Z,6.93
2023-05-17T16:31:47.226Z,6.93
2023-05-17T16:34:15.549Z,7.40
2023-05-17T16:36:45.804Z,6.57
2023-05-17T16:39:14.717Z,6.40
2023-05-17T16:41:43.843Z,6.93
2023-05-17T16:44:11.851Z,6.00
2023-05-17T16:46:40.241Z,7.03
2023-05-17T16:49:09.228Z,6.13
2023-05-17T16:51:37.720Z,6.63
2023-05-17T16:54:06.913Z,6.20
2023-05-17T16:56:35.495Z,5.47
2023-05-17T16:59:03.620Z,5.80
2023-05-17T17:01:32.754Z,5.10
2023-05-17T17:04:00.998Z,5.40
2023-05-17T17:06:29.147Z,4.73
2023-05-17T17:08:57.912Z,6.23
2023-05-17T17:11:26.280Z,5.43
2023-05-17T17:13:54.966Z,6.30
2023-05-17T17:16:23.967Z,6.57
2023-05-17T17:18:52.982Z,9.93
2023-05-17T17:21:21.962Z,12.53
2023-05-17T17:23:51.137Z,10.37
2023-05-17T17:26:19.214Z,15.03
2023-05-17T17:28:47.387Z,7.80
2023-05-17T17:31:16.760Z,4.67
2023-05-17T17:33:45.585Z,4.20
2023-05-17T17:36:14.153Z,4.00
2023-05-17T17:38:42.749Z,4.50
2023-05-17T17:41:11.777Z,4.20
2023-05-17T17:43:41.376Z,4.63
2023-05-17T17:46:09.633Z,5.53
2023-05-17T17:48:37.533Z,7.57
2023-05-17T17:51:06.099Z,6.90
2023-05-17T17:53:34.710Z,5.40
2023-05-17T17:56:03.563Z,4.20
2023-05-17T17:58:31.550Z,4.80
2023-05-17T18:01:00.181Z,5.37
2023-05-17T18:03:28.165Z,4.53
2023-05-17T18:05:56.971Z,5.43
2023-05-17T18:08:25.659Z,5.63
2023-05-17T18:10:53.932Z,5.73
2023-05-17T18:13:22.618Z,4.50
2023-05-17T18:15:51.425Z,3.80
2023-05-17T18:18:20.097Z,2.90
2023-05-17T18:20:48.686Z,3.03
2023-05-17T18:23:17.578Z,3.10
2023-05-17T18:25:47.682Z,3.80
2023-05-17T18:28:18.210Z,3.20
2023-05-17T18:30:46.402Z,3.30
2023-05-17T18:33:15.150Z,3.33
2023-05-17T18:35:44.596Z,3.33
2023-05-17T18:45:36.998Z,6.58
2023-05-17T18:48:05.752Z,7.00
2023-05-17T18:50:33.967Z,6.70
2023-05-17T18:53:02.763Z,5.40
2023-05-17T18:55:30.700Z,5.53
2023-05-17T18:57:59.392Z,6.90
2023-05-17T19:00:28.770Z,10.63
2023-05-17T19:02:57.636Z,14.10
2023-05-17T19:05:26.464Z,10.00
2023-05-17T19:07:54.557Z,8.00
2023-05-17T19:10:22.730Z,7.53
2023-05-17T19:12:51.376Z,5.37
2023-05-17T19:15:20.637Z,5.33
2023-05-17T19:17:49.482Z,5.27
2023-05-17T19:20:18.277Z,6.97
2023-05-17T19:22:47.059Z,6.83
2023-05-17T19:25:16.391Z,5.60
2023-05-17T19:27:45.976Z,5.13
2023-05-17T19:30:14.771Z,5.17
2023-05-17T19:32:42.899Z,4.30
2023-05-17T19:35:12.336Z,4.80
2023-05-17T19:40:09.572Z,4.55
2023-05-17T19:42:39.336Z,4.67
2023-05-17T19:45:10.480Z,5.40
2023-05-17T19:47:39.303Z,6.83
2023-05-17T19:50:08.544Z,7.23
2023-05-17T19:52:37.318Z,5.33
2023-05-17T19:55:06.270Z,5.50
2023-05-17T19:57:34.396Z,5.63
2023-05-17T20:00:02.868Z,4.77
2023-05-17T20:02:31.697Z,5.83
2023-05-17T20:05:01.629Z,4.93
2023-05-17T20:07:30.386Z,5.33
2023-05-17T20:09:59.602Z,5.67
2023-05-17T20:12:28.578Z,4.93
2023-05-17T20:14:57.466Z,5.63
2023-05-17T20:17:26.167Z,5.90
2023-05-17T20:19:54.152Z,5.80
2023-05-17T20:22:22.915Z,4.90
2023-05-17T20:24:52.003Z,5.80
2023-05-17T20:27:21.001Z,5.70
2023-05-17T20:29:49.265Z,6.17
2023-05-17T20:32:17.339Z,6.33
2023-05-17T20:34:46.436Z,6.30
2023-05-17T20:37:15.015Z,5.80
2023-05-17T20:39:43.809Z,6.00
2023-05-17T20:42:14.133Z,6.63
2023-05-17T20:44:44.083Z,6.83
2023-05-17T20:47:12.381Z,6.70
2023-05-17T20:49:40.606Z,5.53
2023-05-17T20:52:09.088Z,4.90
2023-05-17T20:54:37.581Z,5.07
2023-05-17T20:57:07.454Z,5.37
2023-05-17T20:59:37.395Z,6.30
2023-05-17T21:02:07.390Z,6.23
2023-05-17T21:04:37.741Z,5.40
2023-05-17T21:07:06.322Z,4.67
2023-05-17T21:09:35.326Z,4.60
2023-05-17T21:12:04.001Z,5.53
2023-05-17T21:14:32.691Z,5.13
2023-05-17T21:17:02.711Z,4.77
2023-05-17T21:19:31.043Z,3.80
2023-05-17T21:22:00.180Z,3.87
2023-05-17T21:24:28.864Z,4.50
2023-05-17T21:26:57.578Z,3.60
2023-05-17T21:29:26.048Z,6.07
2023-05-17T21:31:54.751Z,4.20
2023-05-17T21:34:23.291Z,3.87
2023-05-17T21:36:51.188Z,3.77
2023-05-17T21:39:19.645Z,3.50
2023-05-17T21:41:48.135Z,3.50
2023-05-17T21:44:16.158Z,4.13
2023-05-17T21:46:44.508Z,4.97
2023-05-17T21:49:13.309Z,5.63
2023-05-17T21:51:42.846Z,5.93
2023-05-17T21:54:11.577Z,5.87
2023-05-17T21:56:40.457Z,7.10
2023-05-17T21:59:09.239Z,7.77
2023-05-17T22:01:37.192Z,7.17
2023-05-17T22:04:05.960Z,6.80
2023-05-17T22:06:34.792Z,6.97
2023-05-17T22:09:03.173Z,8.23
2023-05-17T22:11:31.857Z,6.40
2023-05-17T22:14:00.534Z,6.83
2023-05-17T22:16:30.188Z,5.83
2023-05-17T22:19:00.621Z,7.07
2023-05-17T22:21:30.075Z,5.50
2023-05-17T22:23:58.177Z,5.80
2023-05-17T22:26:28.114Z,5.30
2023-05-17T22:28:57.058Z,5.43
2023-05-17T22:31:26.890Z,5.43
2023-05-17T22:33:56.075Z,5.10
2023-05-17T22:36:25.909Z,5.67
2023-05-17T22:38:53.985Z,5.70
2023-05-17T22:41:22.032Z,5.67
2023-05-17T22:43:50.109Z,4.90
2023-05-17T22:46:18.987Z,4.77
2023-05-17T22:48:46.993Z,4.37
2023-05-17T22:51:15.446Z,3.97
2023-05-17T22:53:43.514Z,4.43
2023-05-17T22:56:12.253Z,4.47
2023-05-17T22:58:40.588Z,4.60
2023-05-17T23:01:08.695Z,3.00
2023-05-17T23:03:37.479Z,3.43
2023-05-17T23:06:06.216Z,3.40
2023-05-17T23:08:34.716Z,3.73
2023-05-17T23:11:04.981Z,4.80
2023-05-17T23:13:33.622Z,4.80
2023-05-17T23:16:02.323Z,4.77
2023-05-17T23:18:30.399Z,5.23
2023-05-17T23:20:59.275Z,5.23
2023-05-17T23:23:29.616Z,5.53
2023-05-17T23:25:58.391Z,5.17
2023-05-17T23:28:28.918Z,4.67
2023-05-17T23:30:58.990Z,5.17
2023-05-17T23:33:28.772Z,4.90
2023-05-17T23:35:57.010Z,4.17
2023-05-17T23:38:25.741Z,4.30
2023-05-17T23:40:54.291Z,4.17
2023-05-17T23:43:22.968Z,3.63
2023-05-17T23:45:51.337Z,3.40
2023-05-17T23:48:20.967Z,3.50
2023-05-17T23:50:49.452Z,3.10
2023-05-17T23:53:19.248Z,3.20
2023-05-17T23:55:47.943Z,2.60
2023-05-17T23:58:16.938Z,2.83
